sensor_id;sensor_type;location;lat;lon;timestamp;temperature;humidity
47658;DHT22;33958;48.404;10.598;2022-09-09T00:01:23;11.40;99.90
47658;DHT22;33958;48.404;10.598;2022-09-09T00:06:46;11.40;99.90
47658;DHT22;33958;48.404;10.598;2022-09-09T00:09:19;11.50;99.90
47658;DHT22;33958;48.404;10.598;2022-09-09T00:12:39;11.60;99.90
47658;DHT22;33958;48.404;10.598;2022-09-09T00:15:11;11.50;99.90
47658;DHT22;33958;48.404;10.598;2022-09-09T00:22:47;11.90;99.90
47658;DHT22;33958;48.404;10.598;2022-09-09T00:25:28;11.90;99.90
47658;DHT22;33958;48.404;10.598;2022-09-09T00:27:56;11.80;99.90
47658;DHT22;33958;48.404;10.598;2022-09-09T00:30:26;11.90;99.90
47658;DHT22;33958;48.404;10.598;2022-09-09T00:33:11;11.80;99.90
47658;DHT22;33958;48.404;10.598;2022-09-09T00:35:48;11.70;99.90
47658;DHT22;33958;48.404;10.598;2022-09-09T00:38:24;11.70;99.90
47658;DHT22;33958;48.404;10.598;2022-09-09T00:40:56;11.70;99.90
47658;DHT22;33958;48.404;10.598;2022-09-09T00:43:32;11.80;99.90
47658;DHT22;33958;48.404;10.598;2022-09-09T00:57:33;11.80;99.90
47658;DHT22;33958;48.404;10.598;2022-09-09T01:12:02;11.60;99.90
47658;DHT22;33958;48.404;10.598;2022-09-09T01:17:14;11.50;99.90
47658;DHT22;33958;48.404;10.598;2022-09-09T01:27:22;11.30;99.90
47658;DHT22;33958;48.404;10.598;2022-09-09T01:29:49;11.30;99.90
47658;DHT22;33958;48.404;10.598;2022-09-09T01:32:40;11.30;99.90
47658;DHT22;33958;48.404;10.598;2022-09-09T01:35:15;11.20;99.90
47658;DHT22;33958;48.404;10.598;2022-09-09T01:37:44;11.30;99.90
47658;DHT22;33958;48.404;10.598;2022-09-09T01:40:11;11.30;99.90
47658;DHT22;33958;48.404;10.598;2022-09-09T01:42:39;11.30;99.90
47658;DHT22;33958;48.404;10.598;2022-09-09T01:45:06;11.30;99.90
47658;DHT22;33958;48.404;10.598;2022-09-09T01:47:34;11.10;99.90
47658;DHT22;33958;48.404;10.598;2022-09-09T01:50:02;11.10;99.90
47658;DHT22;33958;48.404;10.598;2022-09-09T01:52:31;11.10;99.90
47658;DHT22;33958;48.404;10.598;2022-09-09T01:55:00;11.00;99.90
47658;DHT22;33958;48.404;10.598;2022-09-09T01:57:33;11.10;99.90
47658;DHT22;33958;48.404;10.598;2022-09-09T02:00:07;11.10;99.90
47658;DHT22;33958;48.404;10.598;2022-09-09T02:08:15;11.00;99.90
47658;DHT22;33958;48.404;10.598;2022-09-09T02:10:53;10.90;99.90
47658;DHT22;33958;48.404;10.598;2022-09-09T02:13:22;10.90;99.90
47658;DHT22;33958;48.404;10.598;2022-09-09T02:16:07;10.80;99.90
47658;DHT22;33958;48.404;10.598;2022-09-09T02:18:55;10.80;99.90
47658;DHT22;33958;48.404;10.598;2022-09-09T02:21:23;10.80;99.90
47658;DHT22;33958;48.404;10.598;2022-09-09T02:23:52;10.80;99.90
47658;DHT22;33958;48.404;10.598;2022-09-09T02:26:21;10.80;99.90
47658;DHT22;33958;48.404;10.598;2022-09-09T02:28:50;10.80;99.90
47658;DHT22;33958;48.404;10.598;2022-09-09T02:31:19;10.90;99.90
47658;DHT22;33958;48.404;10.598;2022-09-09T02:33:52;10.90;99.90
47658;DHT22;33958;48.404;10.598;2022-09-09T02:36:23;10.90;99.90
47658;DHT22;33958;48.404;10.598;2022-09-09T02:38:52;10.90;99.90
47658;DHT22;33958;48.404;10.598;2022-09-09T02:41:24;10.80;99.90
47658;DHT22;33958;48.404;10.598;2022-09-09T02:43:52;10.70;99.90
47658;DHT22;33958;48.404;10.598;2022-09-09T02:49:06;10.70;99.90
47658;DHT22;33958;48.404;10.598;2022-09-09T02:51:46;10.60;99.90
47658;DHT22;33958;48.404;10.598;2022-09-09T02:54:32;10.50;99.90
47658;DHT22;33958;48.404;10.598;2022-09-09T02:57:17;10.40;99.90
47658;DHT22;33958;48.404;10.598;2022-09-09T02:59:46;10.40;99.90
47658;DHT22;33958;48.404;10.598;2022-09-09T03:02:13;10.40;99.90
47658;DHT22;33958;48.404;10.598;2022-09-09T03:04:41;10.50;99.90
47658;DHT22;33958;48.404;10.598;2022-09-09T03:07:11;10.40;99.90
47658;DHT22;33958;48.404;10.598;2022-09-09T03:09:39;10.50;99.90
47658;DHT22;33958;48.404;10.598;2022-09-09T03:12:05;10.50;99.90
47658;DHT22;33958;48.404;10.598;2022-09-09T03:14:33;10.40;99.90
47658;DHT22;33958;48.404;10.598;2022-09-09T03:17:00;10.40;99.90
47658;DHT22;33958;48.404;10.598;2022-09-09T03:19:29;10.40;99.90
47658;DHT22;33958;48.404;10.598;2022-09-09T03:21:56;10.40;99.90
47658;DHT22;33958;48.404;10.598;2022-09-09T03:24:24;10.40;99.90
47658;DHT22;33958;48.404;10.598;2022-09-09T03:26:51;10.30;99.90
47658;DHT22;33958;48.404;10.598;2022-09-09T03:29:19;10.30;99.90
47658;DHT22;33958;48.404;10.598;2022-09-09T03:31:45;10.30;99.90
47658;DHT22;33958;48.404;10.598;2022-09-09T03:34:13;10.30;99.90
47658;DHT22;33958;48.404;10.598;2022-09-09T03:36:40;10.30;99.90
47658;DHT22;33958;48.404;10.598;2022-09-09T03:39:08;10.30;99.90
47658;DHT22;33958;48.404;10.598;2022-09-09T03:41:34;10.30;99.90
47658;DHT22;33958;48.404;10.598;2022-09-09T03:44:01;10.30;99.90
47658;DHT22;33958;48.404;10.598;2022-09-09T03:46:28;10.30;99.90
47658;DHT22;33958;48.404;10.598;2022-09-09T03:48:56;10.30;99.90
47658;DHT22;33958;48.404;10.598;2022-09-09T03:51:23;10.30;99.90
47658;DHT22;33958;48.404;10.598;2022-09-09T03:53:51;10.30;99.90
47658;DHT22;33958;48.404;10.598;2022-09-09T03:56:17;10.40;99.90
47658;DHT22;33958;48.404;10.598;2022-09-09T03:58:44;10.40;99.90
47658;DHT22;33958;48.404;10.598;2022-09-09T04:01:12;10.40;99.90
47658;DHT22;33958;48.404;10.598;2022-09-09T04:03:41;10.50;99.90
47658;DHT22;33958;48.404;10.598;2022-09-09T04:06:08;10.50;99.90
47658;DHT22;33958;48.404;10.598;2022-09-09T04:08:37;10.50;99.90
47658;DHT22;33958;48.404;10.598;2022-09-09T04:11:05;10.60;99.90
47658;DHT22;33958;48.404;10.598;2022-09-09T04:13:37;10.60;99.90
47658;DHT22;33958;48.404;10.598;2022-09-09T04:16:06;10.60;99.90
47658;DHT22;33958;48.404;10.598;2022-09-09T04:18:33;10.60;99.90
47658;DHT22;33958;48.404;10.598;2022-09-09T04:21:01;10.50;99.90
47658;DHT22;33958;48.404;10.598;2022-09-09T04:23:29;10.80;99.90
47658;DHT22;33958;48.404;10.598;2022-09-09T04:25:57;10.90;99.90
47658;DHT22;33958;48.404;10.598;2022-09-09T04:28:27;10.90;99.90
47658;DHT22;33958;48.404;10.598;2022-09-09T04:30:55;10.90;99.90
47658;DHT22;33958;48.404;10.598;2022-09-09T04:33:24;11.00;99.90
47658;DHT22;33958;48.404;10.598;2022-09-09T04:35:53;11.10;99.90
47658;DHT22;33958;48.404;10.598;2022-09-09T04:38:20;11.10;99.90
47658;DHT22;33958;48.404;10.598;2022-09-09T04:40:50;11.10;99.90
47658;DHT22;33958;48.404;10.598;2022-09-09T04:43:18;11.10;99.90
47658;DHT22;33958;48.404;10.598;2022-09-09T04:45:50;11.00;99.90
47658;DHT22;33958;48.404;10.598;2022-09-09T04:48:20;11.20;99.90
47658;DHT22;33958;48.404;10.598;2022-09-09T04:51:14;11.30;99.90
47658;DHT22;33958;48.404;10.598;2022-09-09T04:53:41;11.10;99.90
47658;DHT22;33958;48.404;10.598;2022-09-09T04:56:14;10.90;99.90
47658;DHT22;33958;48.404;10.598;2022-09-09T04:58:42;11.10;99.90
47658;DHT22;33958;48.404;10.598;2022-09-09T05:01:15;11.30;99.90
47658;DHT22;33958;48.404;10.598;2022-09-09T05:03:44;11.40;99.90
47658;DHT22;33958;48.404;10.598;2022-09-09T05:06:16;11.50;99.90
47658;DHT22;33958;48.404;10.598;2022-09-09T05:08:44;11.60;99.90
47658;DHT22;33958;48.404;10.598;2022-09-09T05:11:19;11.60;99.90
47658;DHT22;33958;48.404;10.598;2022-09-09T05:13:47;11.60;99.90
47658;DHT22;33958;48.404;10.598;2022-09-09T05:16:14;11.60;99.90
47658;DHT22;33958;48.404;10.598;2022-09-09T05:18:41;11.70;99.90
47658;DHT22;33958;48.404;10.598;2022-09-09T05:21:11;11.80;99.90
47658;DHT22;33958;48.404;10.598;2022-09-09T05:23:38;11.90;99.90
47658;DHT22;33958;48.404;10.598;2022-09-09T05:26:06;12.00;99.90
47658;DHT22;33958;48.404;10.598;2022-09-09T05:28:34;12.10;99.90
47658;DHT22;33958;48.404;10.598;2022-09-09T05:31:05;12.10;99.90
47658;DHT22;33958;48.404;10.598;2022-09-09T05:33:35;12.20;99.90
47658;DHT22;33958;48.404;10.598;2022-09-09T05:36:07;12.30;99.90
47658;DHT22;33958;48.404;10.598;2022-09-09T05:38:35;12.30;99.90
47658;DHT22;33958;48.404;10.598;2022-09-09T05:41:03;12.50;99.90
47658;DHT22;33958;48.404;10.598;2022-09-09T05:43:29;12.60;99.90
47658;DHT22;33958;48.404;10.598;2022-09-09T05:46:06;12.80;99.90
47658;DHT22;33958;48.404;10.598;2022-09-09T05:48:42;12.80;99.90
47658;DHT22;33958;48.404;10.598;2022-09-09T05:51:14;12.80;99.90
47658;DHT22;33958;48.404;10.598;2022-09-09T05:53:46;13.00;99.90
47658;DHT22;33958;48.404;10.598;2022-09-09T05:56:27;13.00;99.90
47658;DHT22;33958;48.404;10.598;2022-09-09T05:58:55;13.10;99.90
47658;DHT22;33958;48.404;10.598;2022-09-09T06:01:31;13.10;99.90
47658;DHT22;33958;48.404;10.598;2022-09-09T06:03:59;13.20;99.90
47658;DHT22;33958;48.404;10.598;2022-09-09T06:06:30;13.30;99.90
47658;DHT22;33958;48.404;10.598;2022-09-09T06:08:57;13.40;99.90
47658;DHT22;33958;48.404;10.598;2022-09-09T06:11:28;13.40;99.90
47658;DHT22;33958;48.404;10.598;2022-09-09T06:13:58;13.50;99.90
47658;DHT22;33958;48.404;10.598;2022-09-09T06:16:27;13.60;99.90
47658;DHT22;33958;48.404;10.598;2022-09-09T06:18:55;13.70;99.90
47658;DHT22;33958;48.404;10.598;2022-09-09T06:21:28;13.70;99.90
47658;DHT22;33958;48.404;10.598;2022-09-09T06:23:57;13.80;99.90
47658;DHT22;33958;48.404;10.598;2022-09-09T06:26:31;13.60;99.90
47658;DHT22;33958;48.404;10.598;2022-09-09T06:29:00;13.60;99.90
47658;DHT22;33958;48.404;10.598;2022-09-09T06:31:28;13.50;99.90
47658;DHT22;33958;48.404;10.598;2022-09-09T06:33:58;13.50;99.90
47658;DHT22;33958;48.404;10.598;2022-09-09T06:36:27;13.50;99.90
47658;DHT22;33958;48.404;10.598;2022-09-09T06:38:54;13.60;99.90
47658;DHT22;33958;48.404;10.598;2022-09-09T06:41:23;13.40;99.90
47658;DHT22;33958;48.404;10.598;2022-09-09T06:43:51;13.40;99.90
47658;DHT22;33958;48.404;10.598;2022-09-09T06:46:21;13.40;99.90
47658;DHT22;33958;48.404;10.598;2022-09-09T06:48:48;13.50;99.90
47658;DHT22;33958;48.404;10.598;2022-09-09T06:51:20;13.60;99.90
47658;DHT22;33958;48.404;10.598;2022-09-09T06:53:50;13.90;99.90
47658;DHT22;33958;48.404;10.598;2022-09-09T06:56:31;14.00;99.90
47658;DHT22;33958;48.404;10.598;2022-09-09T06:59:00;14.20;99.90
47658;DHT22;33958;48.404;10.598;2022-09-09T07:01:33;14.40;99.90
47658;DHT22;33958;48.404;10.598;2022-09-09T07:04:00;14.40;99.90
47658;DHT22;33958;48.404;10.598;2022-09-09T07:06:30;14.50;99.90
47658;DHT22;33958;48.404;10.598;2022-09-09T07:08:59;14.40;99.90
47658;DHT22;33958;48.404;10.598;2022-09-09T07:11:29;14.40;99.90
47658;DHT22;33958;48.404;10.598;2022-09-09T07:14:00;14.50;99.90
47658;DHT22;33958;48.404;10.598;2022-09-09T07:16:27;14.70;99.90
47658;DHT22;33958;48.404;10.598;2022-09-09T07:18:56;14.60;99.90
47658;DHT22;33958;48.404;10.598;2022-09-09T07:21:28;14.50;99.90
47658;DHT22;33958;48.404;10.598;2022-09-09T07:23:55;14.40;99.90
47658;DHT22;33958;48.404;10.598;2022-09-09T07:26:25;14.40;99.90
47658;DHT22;33958;48.404;10.598;2022-09-09T07:28:52;14.40;99.90
47658;DHT22;33958;48.404;10.598;2022-09-09T07:31:27;14.40;99.90
47658;DHT22;33958;48.404;10.598;2022-09-09T07:33:54;14.40;99.90
47658;DHT22;33958;48.404;10.598;2022-09-09T07:36:23;14.40;99.90
47658;DHT22;33958;48.404;10.598;2022-09-09T07:38:58;14.40;99.90
47658;DHT22;33958;48.404;10.598;2022-09-09T07:41:29;14.50;99.90
47658;DHT22;33958;48.404;10.598;2022-09-09T07:43:58;14.70;99.90
47658;DHT22;33958;48.404;10.598;2022-09-09T07:46:26;14.70;99.90
47658;DHT22;33958;48.404;10.598;2022-09-09T07:48:55;14.80;99.90
47658;DHT22;33958;48.404;10.598;2022-09-09T07:51:25;15.00;99.90
47658;DHT22;33958;48.404;10.598;2022-09-09T07:53:57;15.20;99.90
47658;DHT22;33958;48.404;10.598;2022-09-09T07:56:26;15.30;99.90
47658;DHT22;33958;48.404;10.598;2022-09-09T07:58:55;15.50;99.90
47658;DHT22;33958;48.404;10.598;2022-09-09T08:01:30;15.30;99.90
47658;DHT22;33958;48.404;10.598;2022-09-09T08:04:03;15.30;99.90
47658;DHT22;33958;48.404;10.598;2022-09-09T08:06:36;15.40;99.90
47658;DHT22;33958;48.404;10.598;2022-09-09T08:09:04;15.60;99.90
47658;DHT22;33958;48.404;10.598;2022-09-09T08:11:32;15.70;99.90
47658;DHT22;33958;48.404;10.598;2022-09-09T08:14:05;15.60;99.90
47658;DHT22;33958;48.404;10.598;2022-09-09T08:16:39;15.70;99.90
47658;DHT22;33958;48.404;10.598;2022-09-09T08:19:07;15.80;99.90
47658;DHT22;33958;48.404;10.598;2022-09-09T08:21:36;15.80;99.90
47658;DHT22;33958;48.404;10.598;2022-09-09T08:24:03;16.10;99.90
47658;DHT22;33958;48.404;10.598;2022-09-09T08:26:42;16.30;99.90
47658;DHT22;33958;48.404;10.598;2022-09-09T08:29:11;16.40;99.90
47658;DHT22;33958;48.404;10.598;2022-09-09T08:34:08;17.30;99.90
47658;DHT22;33958;48.404;10.598;2022-09-09T08:36:43;17.40;99.90
47658;DHT22;33958;48.404;10.598;2022-09-09T08:39:12;17.90;99.90
47658;DHT22;33958;48.404;10.598;2022-09-09T08:44:50;18.90;98.20
47658;DHT22;33958;48.404;10.598;2022-09-09T08:58:00;20.20;94.70
47658;DHT22;33958;48.404;10.598;2022-09-09T09:03:53;20.40;94.70
47658;DHT22;33958;48.404;10.598;2022-09-09T09:11:40;20.90;93.40
47658;DHT22;33958;48.404;10.598;2022-09-09T09:14:21;20.40;93.00
47658;DHT22;33958;48.404;10.598;2022-09-09T09:16:56;20.90;92.30
47658;DHT22;33958;48.404;10.598;2022-09-09T09:19:24;21.20;92.80
47658;DHT22;33958;48.404;10.598;2022-09-09T09:22:04;21.30;92.00
47658;DHT22;33958;48.404;10.598;2022-09-09T09:27:12;22.10;91.30
47658;DHT22;33958;48.404;10.598;2022-09-09T09:29:40;21.40;91.70
47658;DHT22;33958;48.404;10.598;2022-09-09T09:32:33;21.50;90.60
47658;DHT22;33958;48.404;10.598;2022-09-09T09:35:02;20.60;91.90
47658;DHT22;33958;48.404;10.598;2022-09-09T09:37:34;20.80;91.30
47658;DHT22;33958;48.404;10.598;2022-09-09T09:40:16;20.80;91.60
47658;DHT22;33958;48.404;10.598;2022-09-09T09:42:59;21.00;92.10
47658;DHT22;33958;48.404;10.598;2022-09-09T09:45:40;21.20;91.40
47658;DHT22;33958;48.404;10.598;2022-09-09T09:48:21;21.30;90.60
47658;DHT22;33958;48.404;10.598;2022-09-09T09:50:54;21.00;91.00
47658;DHT22;33958;48.404;10.598;2022-09-09T09:53:31;21.20;90.50
47658;DHT22;33958;48.404;10.598;2022-09-09T09:56:05;20.70;91.40
47658;DHT22;33958;48.404;10.598;2022-09-09T10:01:39;21.20;89.10
47658;DHT22;33958;48.404;10.598;2022-09-09T10:04:16;21.30;90.40
47658;DHT22;33958;48.404;10.598;2022-09-09T10:06:44;21.20;90.70
47658;DHT22;33958;48.404;10.598;2022-09-09T10:14:41;21.40;90.40
47658;DHT22;33958;48.404;10.598;2022-09-09T10:20:29;21.30;91.00
47658;DHT22;33958;48.404;10.598;2022-09-09T10:26:20;21.40;90.70
47658;DHT22;33958;48.404;10.598;2022-09-09T10:29:05;21.30;90.60
47658;DHT22;33958;48.404;10.598;2022-09-09T10:31:38;21.30;90.50
47658;DHT22;33958;48.404;10.598;2022-09-09T10:36:58;21.60;89.70
47658;DHT22;33958;48.404;10.598;2022-09-09T10:39:37;21.70;89.50
47658;DHT22;33958;48.404;10.598;2022-09-09T10:42:09;21.60;89.50
47658;DHT22;33958;48.404;10.598;2022-09-09T10:47:30;21.70;89.20
47658;DHT22;33958;48.404;10.598;2022-09-09T10:56:23;21.30;88.00
47658;DHT22;33958;48.404;10.598;2022-09-09T10:58:56;20.80;88.50
47658;DHT22;33958;48.404;10.598;2022-09-09T11:01:35;21.10;89.10
47658;DHT22;33958;48.404;10.598;2022-09-09T11:06:41;20.80;89.90
47658;DHT22;33958;48.404;10.598;2022-09-09T11:09:16;21.20;90.30
47658;DHT22;33958;48.404;10.598;2022-09-09T11:11:55;21.50;88.20
47658;DHT22;33958;48.404;10.598;2022-09-09T11:14:54;21.50;88.70
47658;DHT22;33958;48.404;10.598;2022-09-09T11:17:35;21.90;86.90
47658;DHT22;33958;48.404;10.598;2022-09-09T11:20:11;22.00;85.70
47658;DHT22;33958;48.404;10.598;2022-09-09T11:27:58;22.70;80.80
47658;DHT22;33958;48.404;10.598;2022-09-09T11:40:00;22.20;79.20
47658;DHT22;33958;48.404;10.598;2022-09-09T11:42:24;22.90;77.80
47658;DHT22;33958;48.404;10.598;2022-09-09T11:44:51;23.60;75.20
47658;DHT22;33958;48.404;10.598;2022-09-09T11:47:30;23.40;74.30
47658;DHT22;33958;48.404;10.598;2022-09-09T11:55:40;23.40;73.20
47658;DHT22;33958;48.404;10.598;2022-09-09T12:00:38;23.90;74.00
47658;DHT22;33958;48.404;10.598;2022-09-09T12:06:25;23.20;70.20
47658;DHT22;33958;48.404;10.598;2022-09-09T12:08:58;23.40;70.60
47658;DHT22;33958;48.404;10.598;2022-09-09T12:11:31;23.30;71.30
47658;DHT22;33958;48.404;10.598;2022-09-09T12:14:00;23.40;70.70
47658;DHT22;33958;48.404;10.598;2022-09-09T12:16:36;23.40;71.20
47658;DHT22;33958;48.404;10.598;2022-09-09T12:19:20;23.70;71.50
47658;DHT22;33958;48.404;10.598;2022-09-09T12:24:46;23.40;74.10
47658;DHT22;33958;48.404;10.598;2022-09-09T12:29:55;24.40;70.40
47658;DHT22;33958;48.404;10.598;2022-09-09T12:32:25;25.20;68.40
47658;DHT22;33958;48.404;10.598;2022-09-09T12:34:55;26.10;66.40
47658;DHT22;33958;48.404;10.598;2022-09-09T12:37:40;24.20;66.00
47658;DHT22;33958;48.404;10.598;2022-09-09T12:40:40;25.00;65.80
47658;DHT22;33958;48.404;10.598;2022-09-09T12:43:16;24.40;63.90
47658;DHT22;33958;48.404;10.598;2022-09-09T12:45:44;24.00;66.90
47658;DHT22;33958;48.404;10.598;2022-09-09T12:48:12;23.50;68.50
47658;DHT22;33958;48.404;10.598;2022-09-09T12:50:50;23.50;71.00
47658;DHT22;33958;48.404;10.598;2022-09-09T12:53:34;23.30;71.40
47658;DHT22;33958;48.404;10.598;2022-09-09T12:56:05;22.90;74.60
47658;DHT22;33958;48.404;10.598;2022-09-09T12:58:35;22.50;77.60
47658;DHT22;33958;48.404;10.598;2022-09-09T13:01:04;22.60;77.00
47658;DHT22;33958;48.404;10.598;2022-09-09T13:03:33;22.10;78.60
47658;DHT22;33958;48.404;10.598;2022-09-09T13:06:17;22.00;81.20
47658;DHT22;33958;48.404;10.598;2022-09-09T13:08:44;21.70;82.30
47658;DHT22;33958;48.404;10.598;2022-09-09T13:11:15;21.70;83.10
47658;DHT22;33958;48.404;10.598;2022-09-09T13:13:50;21.60;81.90
47658;DHT22;33958;48.404;10.598;2022-09-09T13:16:25;21.40;82.30
47658;DHT22;33958;48.404;10.598;2022-09-09T13:18:53;21.20;83.90
47658;DHT22;33958;48.404;10.598;2022-09-09T13:21:31;21.00;85.50
47658;DHT22;33958;48.404;10.598;2022-09-09T13:23:59;20.80;87.00
47658;DHT22;33958;48.404;10.598;2022-09-09T13:26:30;20.60;87.10
47658;DHT22;33958;48.404;10.598;2022-09-09T13:29:14;20.70;83.80
47658;DHT22;33958;48.404;10.598;2022-09-09T13:31:45;20.60;87.80
47658;DHT22;33958;48.404;10.598;2022-09-09T13:37:30;19.50;95.50
47658;DHT22;33958;48.404;10.598;2022-09-09T13:39:58;19.00;97.50
47658;DHT22;33958;48.404;10.598;2022-09-09T13:42:28;18.70;96.00
47658;DHT22;33958;48.404;10.598;2022-09-09T13:44:55;17.10;99.90
47658;DHT22;33958;48.404;10.598;2022-09-09T13:47:32;16.40;99.90
47658;DHT22;33958;48.404;10.598;2022-09-09T13:50:18;16.20;99.90
47658;DHT22;33958;48.404;10.598;2022-09-09T13:52:46;16.20;99.90
47658;DHT22;33958;48.404;10.598;2022-09-09T13:55:13;16.80;99.90
47658;DHT22;33958;48.404;10.598;2022-09-09T13:57:50;17.30;99.90
47658;DHT22;33958;48.404;10.598;2022-09-09T14:00:18;18.00;99.90
47658;DHT22;33958;48.404;10.598;2022-09-09T14:02:46;18.40;99.90
47658;DHT22;33958;48.404;10.598;2022-09-09T14:05:13;18.60;99.90
47658;DHT22;33958;48.404;10.598;2022-09-09T14:07:42;19.50;99.90
47658;DHT22;33958;48.404;10.598;2022-09-09T14:10:11;20.00;99.90
47658;DHT22;33958;48.404;10.598;2022-09-09T14:12:38;20.20;97.60
47658;DHT22;33958;48.404;10.598;2022-09-09T14:15:07;20.80;99.20
47658;DHT22;33958;48.404;10.598;2022-09-09T14:17:34;20.80;95.70
47658;DHT22;33958;48.404;10.598;2022-09-09T14:20:03;21.20;94.30
47658;DHT22;33958;48.404;10.598;2022-09-09T14:22:38;21.00;90.60
47658;DHT22;33958;48.404;10.598;2022-09-09T14:25:08;21.10;91.70
47658;DHT22;33958;48.404;10.598;2022-09-09T14:27:35;20.70;90.10
47658;DHT22;33958;48.404;10.598;2022-09-09T14:30:02;21.00;90.70
47658;DHT22;33958;48.404;10.598;2022-09-09T14:32:29;21.00;92.40
47658;DHT22;33958;48.404;10.598;2022-09-09T14:34:56;21.10;89.80
47658;DHT22;33958;48.404;10.598;2022-09-09T14:37:22;21.10;91.20
47658;DHT22;33958;48.404;10.598;2022-09-09T14:39:50;21.20;91.20
47658;DHT22;33958;48.404;10.598;2022-09-09T14:42:17;21.70;92.50
47658;DHT22;33958;48.404;10.598;2022-09-09T14:44:45;21.80;90.00
47658;DHT22;33958;48.404;10.598;2022-09-09T14:47:12;21.90;92.60
47658;DHT22;33958;48.404;10.598;2022-09-09T14:49:39;21.40;92.10
47658;DHT22;33958;48.404;10.598;2022-09-09T14:52:10;21.50;93.90
47658;DHT22;33958;48.404;10.598;2022-09-09T14:54:38;21.50;94.10
47658;DHT22;33958;48.404;10.598;2022-09-09T14:57:04;21.40;92.80
47658;DHT22;33958;48.404;10.598;2022-09-09T14:59:31;21.30;92.00
47658;DHT22;33958;48.404;10.598;2022-09-09T15:01:58;21.20;93.20
47658;DHT22;33958;48.404;10.598;2022-09-09T15:04:27;21.50;91.60
47658;DHT22;33958;48.404;10.598;2022-09-09T15:06:54;21.20;91.00
47658;DHT22;33958;48.404;10.598;2022-09-09T15:09:21;20.80;90.90
47658;DHT22;33958;48.404;10.598;2022-09-09T15:11:48;20.40;92.10
47658;DHT22;33958;48.404;10.598;2022-09-09T15:14:15;20.10;95.50
47658;DHT22;33958;48.404;10.598;2022-09-09T15:16:41;20.20;94.70
47658;DHT22;33958;48.404;10.598;2022-09-09T15:19:08;19.80;94.30
47658;DHT22;33958;48.404;10.598;2022-09-09T15:21:37;19.90;94.90
47658;DHT22;33958;48.404;10.598;2022-09-09T15:24:05;19.90;94.80
47658;DHT22;33958;48.404;10.598;2022-09-09T15:26:34;19.60;94.90
47658;DHT22;33958;48.404;10.598;2022-09-09T15:29:01;19.50;95.60
47658;DHT22;33958;48.404;10.598;2022-09-09T15:31:30;19.50;95.90
47658;DHT22;33958;48.404;10.598;2022-09-09T15:34:00;19.80;95.50
47658;DHT22;33958;48.404;10.598;2022-09-09T15:36:39;20.10;94.20
47658;DHT22;33958;48.404;10.598;2022-09-09T15:39:09;20.20;94.70
47658;DHT22;33958;48.404;10.598;2022-09-09T15:41:39;20.10;94.00
47658;DHT22;33958;48.404;10.598;2022-09-09T15:44:07;20.20;94.50
47658;DHT22;33958;48.404;10.598;2022-09-09T15:46:42;20.70;93.70
47658;DHT22;33958;48.404;10.598;2022-09-09T15:49:30;20.90;92.10
47658;DHT22;33958;48.404;10.598;2022-09-09T15:51:59;20.70;92.00
47658;DHT22;33958;48.404;10.598;2022-09-09T15:54:32;20.10;93.10
47658;DHT22;33958;48.404;10.598;2022-09-09T15:57:01;19.80;93.80
47658;DHT22;33958;48.404;10.598;2022-09-09T15:59:30;19.70;94.00
47658;DHT22;33958;48.404;10.598;2022-09-09T16:01:58;19.60;93.50
47658;DHT22;33958;48.404;10.598;2022-09-09T16:04:29;19.80;92.50
47658;DHT22;33958;48.404;10.598;2022-09-09T16:06:59;19.60;93.20
47658;DHT22;33958;48.404;10.598;2022-09-09T16:09:27;19.60;93.20
47658;DHT22;33958;48.404;10.598;2022-09-09T16:11:59;19.60;93.80
47658;DHT22;33958;48.404;10.598;2022-09-09T16:14:27;19.50;93.70
47658;DHT22;33958;48.404;10.598;2022-09-09T16:16:54;19.50;93.90
47658;DHT22;33958;48.404;10.598;2022-09-09T16:19:22;19.60;95.10
47658;DHT22;33958;48.404;10.598;2022-09-09T16:21:50;20.00;93.70
47658;DHT22;33958;48.404;10.598;2022-09-09T16:24:19;20.30;92.00
47658;DHT22;33958;48.404;10.598;2022-09-09T16:26:49;20.20;92.20
47658;DHT22;33958;48.404;10.598;2022-09-09T16:29:17;20.00;93.40
47658;DHT22;33958;48.404;10.598;2022-09-09T16:31:45;20.00;93.20
47658;DHT22;33958;48.404;10.598;2022-09-09T16:34:17;19.90;92.60
47658;DHT22;33958;48.404;10.598;2022-09-09T16:36:44;19.80;93.20
47658;DHT22;33958;48.404;10.598;2022-09-09T16:39:15;19.50;91.40
47658;DHT22;33958;48.404;10.598;2022-09-09T16:41:44;19.30;91.40
47658;DHT22;33958;48.404;10.598;2022-09-09T16:44:13;19.30;93.10
47658;DHT22;33958;48.404;10.598;2022-09-09T16:46:42;19.20;91.20
47658;DHT22;33958;48.404;10.598;2022-09-09T16:49:11;19.20;91.80
47658;DHT22;33958;48.404;10.598;2022-09-09T16:51:49;19.10;91.20
47658;DHT22;33958;48.404;10.598;2022-09-09T16:54:17;19.00;91.40
47658;DHT22;33958;48.404;10.598;2022-09-09T16:56:46;19.00;91.50
47658;DHT22;33958;48.404;10.598;2022-09-09T16:59:18;18.80;92.70
47658;DHT22;33958;48.404;10.598;2022-09-09T17:01:48;18.70;93.80
47658;DHT22;33958;48.404;10.598;2022-09-09T17:04:16;18.50;97.60
47658;DHT22;33958;48.404;10.598;2022-09-09T17:06:52;18.20;96.90
47658;DHT22;33958;48.404;10.598;2022-09-09T17:09:20;18.10;98.70
47658;DHT22;33958;48.404;10.598;2022-09-09T17:11:48;17.90;97.60
47658;DHT22;33958;48.404;10.598;2022-09-09T17:14:19;17.70;99.50
47658;DHT22;33958;48.404;10.598;2022-09-09T17:16:46;17.70;99.90
47658;DHT22;33958;48.404;10.598;2022-09-09T17:19:14;17.50;99.90
47658;DHT22;33958;48.404;10.598;2022-09-09T17:21:40;17.60;99.90
47658;DHT22;33958;48.404;10.598;2022-09-09T17:24:28;17.60;99.90
47658;DHT22;33958;48.404;10.598;2022-09-09T17:26:56;17.40;99.90
47658;DHT22;33958;48.404;10.598;2022-09-09T17:29:24;17.10;99.90
47658;DHT22;33958;48.404;10.598;2022-09-09T17:31:52;16.50;99.90
47658;DHT22;33958;48.404;10.598;2022-09-09T17:34:19;15.90;99.90
47658;DHT22;33958;48.404;10.598;2022-09-09T17:36:46;15.80;99.90
47658;DHT22;33958;48.404;10.598;2022-09-09T17:39:13;15.80;99.90
47658;DHT22;33958;48.404;10.598;2022-09-09T17:41:40;15.90;99.90
47658;DHT22;33958;48.404;10.598;2022-09-09T17:44:08;15.90;99.90
47658;DHT22;33958;48.404;10.598;2022-09-09T17:46:38;15.80;99.90
47658;DHT22;33958;48.404;10.598;2022-09-09T17:49:09;14.60;99.90
47658;DHT22;33958;48.404;10.598;2022-09-09T17:51:36;14.00;99.90
47658;DHT22;33958;48.404;10.598;2022-09-09T17:54:15;13.70;99.90
47658;DHT22;33958;48.404;10.598;2022-09-09T17:56:43;13.30;99.90
47658;DHT22;33958;48.404;10.598;2022-09-09T17:59:12;13.20;99.90
47658;DHT22;33958;48.404;10.598;2022-09-09T18:01:41;13.10;99.90